createdAt,value
2019-04-25T00:00:38.460Z,0.00
2019-04-25T00:01:38.379Z,0.00
2019-04-25T00:02:38.550Z,0.00
2019-04-25T00:03:38.368Z,0.00
2019-04-25T00:04:38.751Z,0.00
2019-04-25T00:05:38.755Z,0.00
2019-04-25T00:06:38.623Z,0.00
2019-04-25T00:07:38.736Z,0.00
2019-04-25T00:08:38.792Z,0.00
2019-04-25T00:09:38.950Z,0.00
2019-04-25T00:10:38.104Z,0.00
2019-04-25T00:11:38.088Z,0.00
2019-04-25T00:12:38.059Z,0.00
2019-04-25T00:13:38.101Z,0.00
2019-04-25T00:14:38.121Z,0.00
2019-04-25T00:15:38.295Z,0.00
2019-04-25T00:16:38.690Z,0.00
2019-04-25T00:17:38.607Z,0.00
2019-04-25T00:18:38.659Z,0.00
2019-04-25T00:19:38.703Z,0.00
2019-04-25T00:20:38.834Z,0.00
2019-04-25T00:21:38.240Z,0.00
2019-04-25T00:22:39.199Z,0.00
2019-04-25T00:23:39.385Z,0.00
2019-04-25T00:24:39.581Z,0.00
2019-04-25T00:25:37.952Z,0.00
2019-04-25T00:26:37.943Z,0.00
2019-04-25T00:27:37.890Z,0.00
2019-04-25T00:28:37.886Z,0.00
2019-04-25T00:29:37.893Z,0.00
2019-04-25T00:30:37.901Z,0.00
2019-04-25T00:31:37.835Z,0.00
2019-04-25T00:32:37.838Z,0.00
2019-04-25T00:33:37.844Z,0.00
2019-04-25T00:34:37.843Z,0.00
2019-04-25T00:35:37.831Z,0.00
2019-04-25T00:36:39.076Z,0.00
2019-04-25T00:37:37.808Z,0.00
2019-04-25T00:38:37.787Z,0.00
2019-04-25T00:39:37.810Z,0.00
2019-04-25T00:40:37.830Z,0.00
2019-04-25T00:41:37.797Z,0.00
2019-04-25T00:42:37.746Z,0.00
2019-04-25T00:43:37.727Z,0.00
2019-04-25T00:44:37.723Z,0.00
2019-04-25T00:45:37.703Z,0.00
2019-04-25T00:46:37.712Z,0.00
2019-04-25T00:47:37.714Z,0.00
2019-04-25T00:48:37.678Z,0.00
2019-04-25T00:49:37.663Z,0.00
2019-04-25T00:50:37.664Z,0.00
2019-04-25T00:51:37.637Z,0.00
2019-04-25T00:52:37.641Z,0.00
2019-04-25T00:53:37.626Z,0.00
2019-04-25T00:54:37.643Z,0.00
2019-04-25T00:55:37.627Z,0.00
2019-04-25T00:56:37.610Z,0.00
2019-04-25T00:57:37.610Z,0.00
2019-04-25T00:58:37.598Z,0.00
2019-04-25T00:59:37.563Z,0.00
2019-04-25T01:00:37.536Z,0.00
2019-04-25T01:01:37.537Z,0.00
2019-04-25T01:02:37.573Z,0.00
2019-04-25T01:03:37.512Z,0.00
2019-04-25T01:04:37.551Z,0.00
2019-04-25T01:05:37.526Z,0.00
2019-04-25T01:06:37.496Z,0.00
2019-04-25T01:07:37.517Z,0.00
2019-04-25T01:08:37.554Z,0.00
2019-04-25T01:09:37.452Z,0.00
2019-04-25T01:10:37.433Z,0.00
2019-04-25T01:11:37.531Z,0.00
2019-04-25T01:12:37.458Z,0.00
2019-04-25T01:13:37.467Z,0.00
2019-04-25T01:14:37.388Z,0.00
2019-04-25T01:15:37.405Z,0.00
2019-04-25T01:16:37.367Z,0.00
2019-04-25T01:17:37.403Z,0.00
2019-04-25T01:18:37.505Z,0.00
2019-04-25T01:19:37.385Z,0.00
2019-04-25T01:20:37.359Z,0.00
2019-04-25T01:21:37.354Z,0.00
2019-04-25T01:22:37.339Z,0.00
2019-04-25T01:23:37.317Z,0.00
2019-04-25T01:24:37.361Z,0.00
2019-04-25T01:25:40.898Z,0.00
2019-04-25T01:26:38.280Z,0.00
2019-04-25T01:27:37.350Z,0.00
2019-04-25T01:28:37.293Z,0.00
2019-04-25T01:29:37.262Z,0.00
2019-04-25T01:30:37.664Z,0.00
2019-04-25T01:31:37.272Z,0.00
2019-04-25T01:32:37.282Z,0.00
2019-04-25T01:33:37.231Z,0.00
2019-04-25T01:34:37.234Z,0.00
2019-04-25T01:35:37.266Z,0.00
2019-04-25T01:36:37.182Z,0.00
2019-04-25T01:37:37.157Z,0.00
2019-04-25T01:38:37.167Z,0.00
2019-04-25T01:39:37.128Z,0.00
2019-04-25T01:40:37.179Z,0.00
2019-04-25T01:41:37.136Z,0.00
2019-04-25T01:42:37.113Z,0.00
2019-04-25T01:43:37.128Z,0.00
2019-04-25T01:44:37.104Z,0.00
2019-04-25T01:45:37.079Z,0.00
2019-04-25T01:46:37.124Z,0.00
2019-04-25T01:47:37.072Z,0.00
2019-04-25T01:48:37.080Z,0.00
2019-04-25T01:49:37.027Z,0.00
2019-04-25T01:50:37.012Z,0.00
2019-04-25T01:51:37.037Z,0.00
2019-04-25T01:52:37.026Z,0.00
2019-04-25T01:53:37.005Z,0.00
2019-04-25T01:54:37.034Z,0.00
2019-04-25T01:55:37.530Z,0.00
2019-04-25T01:56:36.994Z,0.00
2019-04-25T01:57:36.996Z,0.00
2019-04-25T01:58:36.943Z,0.00
2019-04-25T01:59:36.913Z,0.00
2019-04-25T02:00:37.029Z,0.00
2019-04-25T02:01:36.930Z,0.00
2019-04-25T02:02:36.998Z,0.00
2019-04-25T02:03:36.935Z,0.00
2019-04-25T02:04:36.903Z,0.00
2019-04-25T02:05:36.885Z,0.00
2019-04-25T02:06:36.857Z,0.00
2019-04-25T02:07:36.904Z,0.00
2019-04-25T02:08:36.902Z,0.00
2019-04-25T02:09:36.901Z,0.00
2019-04-25T02:10:36.830Z,0.00
2019-04-25T02:11:36.804Z,0.00
2019-04-25T02:12:37.535Z,0.00
2019-04-25T02:13:36.794Z,0.00
2019-04-25T02:14:36.780Z,0.00
2019-04-25T02:15:36.766Z,0.00
2019-04-25T02:16:36.766Z,0.00
2019-04-25T02:17:36.745Z,0.00
2019-04-25T02:18:36.722Z,0.00
2019-04-25T02:19:36.771Z,0.00
2019-04-25T02:20:36.712Z,0.00
2019-04-25T02:21:36.723Z,0.00
2019-04-25T02:22:37.541Z,0.00
2019-04-25T02:23:36.696Z,0.00
2019-04-25T02:24:36.735Z,0.00
2019-04-25T02:25:36.654Z,0.00
2019-04-25T02:26:36.683Z,0.00
2019-04-25T02:27:36.674Z,0.00
2019-04-25T02:28:36.688Z,0.00
2019-04-25T02:29:36.617Z,0.00
2019-04-25T02:30:36.814Z,0.00
2019-04-25T02:31:36.717Z,0.00
2019-04-25T02:32:37.200Z,0.00
2019-04-25T02:33:36.705Z,0.00
2019-04-25T02:34:36.574Z,0.00
2019-04-25T02:35:36.547Z,0.00
2019-04-25T02:36:36.661Z,0.00
2019-04-25T02:37:36.577Z,0.00
2019-04-25T02:38:36.767Z,0.00
2019-04-25T02:39:37.376Z,0.00
2019-04-25T02:40:36.513Z,0.00
2019-04-25T02:41:36.487Z,0.00
2019-04-25T02:42:36.512Z,0.00
2019-04-25T02:43:36.491Z,0.00
2019-04-25T02:44:36.432Z,0.00
2019-04-25T02:45:36.428Z,0.00
2019-04-25T02:46:37.202Z,0.00
2019-04-25T02:47:36.423Z,0.00
2019-04-25T02:48:36.448Z,0.00
2019-04-25T02:49:39.423Z,0.00
2019-04-25T02:50:36.401Z,0.00
2019-04-25T02:51:36.427Z,0.00
2019-04-25T02:52:36.377Z,0.00
2019-04-25T02:53:37.380Z,0.00
2019-04-25T02:54:36.381Z,0.00
2019-04-25T02:55:37.649Z,0.00
2019-04-25T02:56:38.791Z,0.00
2019-04-25T02:57:36.336Z,0.00
2019-04-25T02:58:36.302Z,0.00
2019-04-25T02:59:37.033Z,0.00
2019-04-25T03:00:49.779Z,0.00
2019-04-25T03:01:37.261Z,0.00
2019-04-25T03:02:37.041Z,0.00
2019-04-25T03:03:36.247Z,0.00
2019-04-25T03:04:37.050Z,0.00
2019-04-25T03:05:36.241Z,0.00
2019-04-25T03:06:36.256Z,0.00
2019-04-25T03:07:36.206Z,0.00
2019-04-25T03:08:36.180Z,0.00
2019-04-25T03:09:36.272Z,0.00
2019-04-25T03:10:36.190Z,0.00
2019-04-25T03:11:36.214Z,0.00
2019-04-25T03:12:36.863Z,0.00
2019-04-25T03:13:36.163Z,0.00
2019-04-25T03:14:36.117Z,0.00
2019-04-25T03:15:36.482Z,0.00
2019-04-25T03:16:36.204Z,0.00
2019-04-25T03:17:36.195Z,0.00
2019-04-25T03:18:36.108Z,0.00
2019-04-25T03:19:36.056Z,4.00
2019-04-25T03:20:36.557Z,4.00
2019-04-25T03:21:36.100Z,4.00
2019-04-25T03:22:36.060Z,4.00
2019-04-25T03:23:36.038Z,0.00
2019-04-25T03:24:36.062Z,0.00
2019-04-25T03:25:36.039Z,4.00
2019-04-25T03:26:40.249Z,4.00
2019-04-25T03:27:36.036Z,4.00
2019-04-25T03:28:36.064Z,4.00
2019-04-25T03:29:35.973Z,4.00
2019-04-25T03:30:36.088Z,4.00
2019-04-25T03:31:36.047Z,8.00
2019-04-25T03:32:35.954Z,4.00
2019-04-25T03:33:38.434Z,8.00
2019-04-25T03:34:35.919Z,8.00
2019-04-25T03:35:35.949Z,8.00
2019-04-25T03:36:35.925Z,12.00
2019-04-25T03:37:35.882Z,16.00
2019-04-25T03:38:35.845Z,16.00
2019-04-25T03:39:35.848Z,20.00
2019-04-25T03:40:35.854Z,24.00
2019-04-25T03:41:35.835Z,28.00
2019-04-25T03:42:35.888Z,32.00
2019-04-25T03:43:35.805Z,40.00
2019-04-25T03:44:35.801Z,48.00
2019-04-25T03:45:35.860Z,56.00
2019-04-25T03:46:35.787Z,68.00
2019-04-25T03:47:35.786Z,76.00
2019-04-25T03:48:37.046Z,88.00
2019-04-25T03:49:35.737Z,96.00
2019-04-25T03:50:35.748Z,108.00
2019-04-25T03:51:35.721Z,116.00
2019-04-25T03:52:35.763Z,124.00
2019-04-25T03:53:35.707Z,132.00
2019-04-25T03:54:35.800Z,140.00
2019-04-25T03:55:35.921Z,148.00
2019-04-25T03:56:35.835Z,160.00
2019-04-25T03:57:35.697Z,168.00
2019-04-25T03:58:35.800Z,180.00
2019-04-25T03:59:35.680Z,192.00
2019-04-25T04:00:36.396Z,204.00
2019-04-25T04:01:35.663Z,212.00
2019-04-25T04:02:35.635Z,224.00
2019-04-25T04:03:36.733Z,232.00
2019-04-25T04:04:35.637Z,244.00
2019-04-25T04:05:36.372Z,252.00
2019-04-25T04:06:35.558Z,264.00
2019-04-25T04:07:35.667Z,276.00
2019-04-25T04:08:35.748Z,284.00
2019-04-25T04:09:35.576Z,296.00
2019-04-25T04:10:35.571Z,308.00
2019-04-25T04:11:35.529Z,316.00
2019-04-25T04:12:35.685Z,324.00
2019-04-25T04:13:35.505Z,332.00
2019-04-25T04:14:35.511Z,344.00
2019-04-25T04:15:35.478Z,352.00
2019-04-25T04:16:35.784Z,368.00
2019-04-25T04:17:35.482Z,380.00
2019-04-25T04:18:35.432Z,392.00
2019-04-25T04:19:35.426Z,400.00
2019-04-25T04:20:35.446Z,408.00
2019-04-25T04:21:35.440Z,420.00
2019-04-25T04:22:35.396Z,432.00
2019-04-25T04:23:35.425Z,444.00
2019-04-25T04:24:35.369Z,456.00
2019-04-25T04:25:35.356Z,468.00
2019-04-25T04:26:35.351Z,484.00
2019-04-25T04:27:35.580Z,500.00
2019-04-25T04:28:35.359Z,516.00
2019-04-25T04:29:35.371Z,532.00
2019-04-25T04:30:35.315Z,552.00
2019-04-25T04:31:35.350Z,568.00
2019-04-25T04:32:35.383Z,592.00
2019-04-25T04:33:35.474Z,612.00
2019-04-25T04:34:37.446Z,628.00
2019-04-25T04:35:36.334Z,648.00
2019-04-25T04:36:36.074Z,672.00
2019-04-25T04:37:35.246Z,692.00
2019-04-25T04:38:35.456Z,720.00
2019-04-25T04:39:35.266Z,740.00
2019-04-25T04:40:36.202Z,760.00
2019-04-25T04:41:35.236Z,776.00
2019-04-25T04:42:35.184Z,796.00
2019-04-25T04:43:35.990Z,812.00
2019-04-25T04:44:35.702Z,836.00
2019-04-25T04:45:35.166Z,864.00
2019-04-25T04:46:35.197Z,884.00
2019-04-25T04:47:35.124Z,908.00
2019-04-25T04:48:35.169Z,944.00
2019-04-25T04:49:35.156Z,992.00
2019-04-25T04:50:35.116Z,976.00
2019-04-25T04:51:35.106Z,1124.00
2019-04-25T04:52:35.132Z,1148.00
2019-04-25T04:53:35.863Z,980.00
2019-04-25T04:54:35.153Z,1028.00
2019-04-25T04:55:35.774Z,1100.00
2019-04-25T04:56:35.395Z,1084.00
2019-04-25T04:57:36.214Z,1144.00
2019-04-25T04:58:35.163Z,1116.00
2019-04-25T04:59:35.048Z,1096.00
2019-04-25T05:00:35.261Z,1128.00
2019-04-25T05:01:35.014Z,1280.00
2019-04-25T05:02:35.062Z,1380.00
2019-04-25T05:03:34.964Z,1532.00
2019-04-25T05:04:35.496Z,1564.00
2019-04-25T05:05:34.963Z,1600.00
2019-04-25T05:06:35.580Z,1832.00
2019-04-25T05:07:34.988Z,1868.00
2019-04-25T05:08:35.665Z,1904.00
2019-04-25T05:09:34.925Z,1944.00
2019-04-25T05:10:34.903Z,1980.00
2019-04-25T05:11:34.939Z,2020.00
2019-04-25T05:12:34.902Z,2040.00
2019-04-25T05:13:34.857Z,2004.00
2019-04-25T05:14:34.854Z,2056.00
2019-04-25T05:15:34.891Z,2068.00
2019-04-25T05:16:34.852Z,1808.00
2019-04-25T05:17:35.821Z,2116.00
2019-04-25T05:18:39.468Z,2136.00
2019-04-25T05:19:35.810Z,2140.00
2019-04-25T05:20:35.611Z,2228.00
2019-04-25T05:21:34.835Z,2276.00
2019-04-25T05:22:34.837Z,2320.00
2019-04-25T05:23:34.944Z,2352.00
2019-04-25T05:24:34.823Z,2416.00
2019-04-25T05:25:34.747Z,2500.00
2019-04-25T05:26:34.871Z,2552.00
2019-04-25T05:27:46.333Z,2628.00
2019-04-25T05:28:35.875Z,2700.00
2019-04-25T05:29:34.698Z,2724.00
2019-04-25T05:30:34.751Z,2720.00
2019-04-25T05:31:34.708Z,2712.00
2019-04-25T05:32:34.704Z,2704.00
2019-04-25T05:33:34.680Z,2708.00
2019-04-25T05:34:34.828Z,2724.00
2019-04-25T05:35:35.088Z,2732.00
2019-04-25T05:36:34.631Z,2752.00
2019-04-25T05:37:34.803Z,2772.00
2019-04-25T05:38:34.612Z,2816.00
2019-04-25T05:39:34.615Z,2852.00
2019-04-25T05:40:34.563Z,2880.00
2019-04-25T05:41:36.004Z,2896.00
2019-04-25T05:42:34.547Z,2912.00
2019-04-25T05:43:34.524Z,2960.00
2019-04-25T05:44:34.545Z,2988.00
2019-04-25T05:45:34.522Z,3016.00
2019-04-25T05:46:34.487Z,3036.00
2019-04-25T05:47:34.523Z,3096.00
2019-04-25T05:48:34.483Z,3208.00
2019-04-25T05:49:34.462Z,3340.00
2019-04-25T05:50:34.540Z,3500.00
2019-04-25T05:51:34.450Z,3672.00
2019-04-25T05:52:34.464Z,3848.00
2019-04-25T05:53:34.439Z,4040.00
2019-04-25T05:54:34.540Z,4244.00
2019-04-25T05:55:34.434Z,4532.00
2019-04-25T05:56:34.409Z,4836.00
2019-04-25T05:57:45.580Z,5160.00
2019-04-25T05:58:35.420Z,5364.00
2019-04-25T05:59:34.368Z,5596.00
2019-04-25T06:00:34.399Z,5852.00
2019-04-25T06:01:35.797Z,6184.00
2019-04-25T06:02:34.316Z,6364.00
2019-04-25T06:03:34.362Z,6388.00
2019-04-25T06:04:34.303Z,6404.00
2019-04-25T06:05:34.304Z,6412.00
2019-04-25T06:06:36.650Z,6372.00
2019-04-25T06:07:34.287Z,6340.00
2019-04-25T06:08:34.321Z,6188.00
2019-04-25T06:09:35.766Z,6088.00
2019-04-25T06:10:34.268Z,6032.00
2019-04-25T06:11:34.264Z,5528.00
2019-04-25T06:12:34.237Z,4488.00
2019-04-25T06:13:34.233Z,4392.00
2019-04-25T06:14:34.198Z,5360.00
2019-04-25T06:15:34.176Z,5604.00
2019-04-25T06:16:34.188Z,3668.00
2019-04-25T06:17:34.365Z,3676.00
2019-04-25T06:18:34.167Z,3900.00
2019-04-25T06:19:34.185Z,4084.00
2019-04-25T06:20:34.379Z,4760.00
2019-04-25T06:21:34.222Z,5376.00
2019-04-25T06:22:34.154Z,4256.00
2019-04-25T06:23:34.157Z,4672.00
2019-04-25T06:24:34.348Z,4388.00
2019-04-25T06:25:38.966Z,4584.00
2019-04-25T06:26:39.611Z,4560.00
2019-04-25T06:27:35.273Z,5716.00
2019-04-25T06:28:34.642Z,6592.00
2019-04-25T06:29:34.810Z,6272.00
2019-04-25T06:30:35.241Z,6088.00
2019-04-25T06:31:34.218Z,3876.00
2019-04-25T06:32:35.347Z,5052.00
2019-04-25T06:33:34.068Z,4452.00
2019-04-25T06:34:37.162Z,4476.00
2019-04-25T06:35:35.506Z,4696.00
2019-04-25T06:36:35.361Z,4856.00
2019-04-25T06:37:35.055Z,4932.00
2019-04-25T06:38:34.047Z,4972.00
2019-04-25T06:39:35.758Z,4868.00
2019-04-25T06:40:34.560Z,4736.00
2019-04-25T06:41:35.669Z,4880.00
2019-04-25T06:42:35.632Z,4624.00
2019-04-25T06:43:34.279Z,6252.00
2019-04-25T06:44:34.592Z,4664.00
2019-04-25T06:45:34.461Z,3952.00
2019-04-25T06:46:34.009Z,4800.00
2019-04-25T06:47:34.676Z,4600.00
2019-04-25T06:48:35.063Z,5736.00
2019-04-25T06:49:37.106Z,5680.00
2019-04-25T06:50:35.284Z,5680.00
2019-04-25T06:51:34.348Z,5752.00
2019-04-25T06:52:37.301Z,5964.00
2019-04-25T06:53:34.611Z,6304.00
2019-04-25T06:54:35.124Z,6728.00
2019-04-25T06:55:34.611Z,7180.00
2019-04-25T06:56:34.498Z,7684.00
2019-04-25T06:57:34.166Z,8172.00
2019-04-25T06:58:34.275Z,8528.00
2019-04-25T06:59:34.501Z,8772.00
2019-04-25T07:00:40.573Z,8884.00
2019-04-25T07:01:34.910Z,8884.00
2019-04-25T07:02:35.181Z,8668.00
2019-04-25T07:03:36.623Z,8392.00
2019-04-25T07:04:34.789Z,7336.00
2019-04-25T07:05:39.978Z,7456.00
2019-04-25T07:06:34.754Z,5920.00
2019-04-25T07:07:35.202Z,5120.00
2019-04-25T07:08:35.383Z,5092.00
2019-04-25T07:09:34.940Z,5492.00
2019-04-25T07:10:34.852Z,5608.00
2019-04-25T07:11:34.849Z,6012.00
2019-04-25T07:12:35.823Z,7104.00
2019-04-25T07:13:35.566Z,6768.00
2019-04-25T07:14:36.668Z,7400.00
2019-04-25T07:15:34.139Z,4464.00
2019-04-25T07:16:34.629Z,4204.00
2019-04-25T07:17:34.995Z,4496.00
2019-04-25T07:18:36.316Z,4284.00
2019-04-25T07:19:34.371Z,3828.00
2019-04-25T07:20:34.590Z,3764.00
2019-04-25T07:21:34.656Z,3768.00
2019-04-25T07:22:34.792Z,3908.00
2019-04-25T07:23:34.615Z,3980.00
2019-04-25T07:24:35.032Z,4124.00
2019-04-25T07:25:35.385Z,3604.00
2019-04-25T07:26:37.726Z,3632.00
2019-04-25T07:27:37.863Z,3516.00
2019-04-25T07:28:35.686Z,3232.00
2019-04-25T07:29:33.747Z,3100.00
2019-04-25T07:30:48.439Z,4880.00
2019-04-25T07:31:34.782Z,4336.00
2019-04-25T07:32:34.846Z,4824.00
2019-04-25T07:33:34.741Z,4964.00
2019-04-25T07:34:34.120Z,5084.00
2019-04-25T07:35:34.449Z,4848.00
2019-04-25T07:36:34.789Z,5052.00
2019-04-25T07:37:34.916Z,5008.00
2019-04-25T07:38:34.069Z,4996.00
2019-04-25T07:39:34.378Z,5000.00
2019-04-25T07:40:34.012Z,5008.00
2019-04-25T07:41:34.490Z,4992.00
2019-04-25T07:42:34.255Z,4968.00
2019-04-25T07:43:34.133Z,5084.00
2019-04-25T07:44:41.941Z,3952.00
2019-04-25T07:45:35.095Z,4572.00
2019-04-25T07:46:37.291Z,5092.00
2019-04-25T07:47:35.127Z,5080.00
2019-04-25T07:48:36.320Z,5080.00
2019-04-25T07:49:34.551Z,5092.00
2019-04-25T07:50:34.297Z,5112.00
2019-04-25T07:51:34.586Z,5120.00
2019-04-25T07:52:34.304Z,5132.00
2019-04-25T07:53:34.617Z,5140.00
2019-04-25T07:54:34.397Z,5148.00
2019-04-25T07:55:35.871Z,5164.00
2019-04-25T07:56:35.180Z,5168.00
2019-04-25T07:57:34.436Z,5172.00
2019-04-25T07:58:45.290Z,5172.00
2019-04-25T07:59:35.993Z,5168.00
2019-04-25T08:00:35.144Z,5200.00
2019-04-25T08:01:33.501Z,5200.00
2019-04-25T08:02:34.112Z,5200.00
2019-04-25T08:03:34.413Z,5216.00
2019-04-25T08:04:34.867Z,5224.00
2019-04-25T08:05:35.122Z,5228.00
2019-04-25T08:06:34.455Z,5232.00
2019-04-25T08:07:33.952Z,5248.00
2019-04-25T08:08:33.956Z,5260.00
2019-04-25T08:09:35.266Z,5264.00
2019-04-25T08:10:33.872Z,5276.00
2019-04-25T08:11:34.144Z,5304.00
2019-04-25T08:12:34.686Z,5280.00
2019-04-25T08:13:34.264Z,5004.00
2019-04-25T08:14:34.179Z,4564.00
2019-04-25T08:15:33.901Z,5292.00
2019-04-25T08:16:34.340Z,5340.00
2019-04-25T08:17:35.804Z,5352.00
2019-04-25T08:18:32.913Z,5408.00
2019-04-25T08:19:33.521Z,5432.00
2019-04-25T08:20:34.445Z,5456.00
2019-04-25T08:21:34.431Z,5476.00
2019-04-25T08:22:34.491Z,5492.00
2019-04-25T08:23:36.684Z,5536.00
2019-04-25T08:24:34.599Z,5552.00
2019-04-25T08:25:33.789Z,5580.00
2019-04-25T08:26:34.802Z,5584.00
2019-04-25T08:27:34.162Z,5620.00
2019-04-25T08:28:34.465Z,5644.00
2019-04-25T08:29:36.318Z,5668.00
2019-04-25T08:30:34.987Z,5696.00
2019-04-25T08:31:34.825Z,5732.00
2019-04-25T08:32:35.102Z,5488.00
2019-04-25T08:33:34.273Z,5756.00
2019-04-25T08:34:34.420Z,5760.00
2019-04-25T08:35:34.214Z,5800.00
2019-04-25T08:36:33.808Z,5816.00
2019-04-25T08:37:34.476Z,5824.00
2019-04-25T08:38:34.496Z,5804.00
2019-04-25T08:39:34.411Z,5772.00
2019-04-25T08:40:35.675Z,5740.00
2019-04-25T08:41:34.806Z,5672.00
2019-04-25T08:42:34.578Z,5524.00
2019-04-25T08:43:34.812Z,5664.00
2019-04-25T08:44:34.773Z,5660.00
2019-04-25T08:45:33.549Z,5656.00
2019-04-25T08:46:35.151Z,5648.00
2019-04-25T08:47:34.708Z,5648.00
2019-04-25T08:48:34.334Z,5648.00
2019-04-25T08:49:34.501Z,5684.00
2019-04-25T08:50:34.816Z,5680.00
2019-04-25T08:51:34.793Z,5684.00
2019-04-25T08:52:35.045Z,5680.00
2019-04-25T08:53:34.483Z,5660.00
2019-04-25T08:54:34.341Z,5672.00
2019-04-25T08:55:34.390Z,5676.00
2019-04-25T08:56:34.245Z,5668.00
2019-04-25T08:57:33.876Z,5680.00
2019-04-25T08:58:34.466Z,5668.00
2019-04-25T08:59:39.696Z,5672.00
2019-04-25T09:00:35.714Z,5664.00
2019-04-25T09:01:34.611Z,5704.00
2019-04-25T09:02:36.025Z,5772.00
2019-04-25T09:03:34.023Z,5804.00
2019-04-25T09:04:33.199Z,5828.00
2019-04-25T09:05:33.368Z,5856.00
2019-04-25T09:06:33.323Z,5892.00
2019-04-25T09:07:34.909Z,5932.00
2019-04-25T09:08:32.902Z,6012.00
2019-04-25T09:09:35.025Z,6096.00
2019-04-25T09:10:35.253Z,6160.00
2019-04-25T09:11:33.409Z,6248.00
2019-04-25T09:12:35.197Z,6324.00
2019-04-25T09:13:33.053Z,6392.00
2019-04-25T09:14:32.419Z,6456.00
2019-04-25T09:15:33.005Z,6536.00
2019-04-25T09:16:34.519Z,6568.00
2019-04-25T09:17:33.187Z,6612.00
2019-04-25T09:18:34.720Z,6768.00
2019-04-25T09:19:33.591Z,6616.00
2019-04-25T09:20:34.827Z,6376.00
2019-04-25T09:21:34.155Z,7020.00
2019-04-25T09:22:32.223Z,7244.00
2019-04-25T09:23:34.406Z,7352.00
2019-04-25T09:24:32.167Z,7384.00
2019-04-25T09:25:34.544Z,6900.00
2019-04-25T09:26:33.952Z,6336.00
2019-04-25T09:27:34.328Z,6644.00
2019-04-25T09:28:34.741Z,7652.00
2019-04-25T09:29:34.384Z,7744.00
2019-04-25T09:30:32.136Z,7168.00
2019-04-25T09:31:34.542Z,6548.00
2019-04-25T09:32:33.708Z,6768.00
2019-04-25T09:33:32.101Z,6848.00
2019-04-25T09:34:33.523Z,6784.00
2019-04-25T09:35:33.500Z,7136.00
2019-04-25T09:36:33.517Z,7012.00
2019-04-25T09:37:33.484Z,7108.00
2019-04-25T09:38:32.034Z,7480.00
2019-04-25T09:39:33.612Z,7416.00
2019-04-25T09:40:32.076Z,7288.00
2019-04-25T09:41:33.501Z,6756.00
2019-04-25T09:42:33.678Z,6292.00
2019-04-25T09:43:33.408Z,5896.00
2019-04-25T09:44:32.019Z,6628.00
2019-04-25T09:45:33.473Z,6668.00
2019-04-25T09:46:32.018Z,6932.00
2019-04-25T09:47:33.436Z,6992.00
2019-04-25T09:48:34.332Z,6976.00
2019-04-25T09:49:34.976Z,6816.00
2019-04-25T09:50:31.969Z,6736.00
2019-04-25T09:51:33.463Z,5900.00
2019-04-25T09:52:31.918Z,4792.00
2019-04-25T09:53:31.902Z,6288.00
2019-04-25T09:54:33.316Z,5824.00
2019-04-25T09:55:31.838Z,6156.00
2019-04-25T09:56:31.898Z,6032.00
2019-04-25T09:57:33.389Z,5988.00
2019-04-25T09:58:31.816Z,5892.00
2019-04-25T09:59:33.197Z,5844.00
2019-04-25T10:00:33.340Z,5792.00
2019-04-25T10:01:31.810Z,5812.00
2019-04-25T10:02:31.845Z,5804.00
2019-04-25T10:03:33.270Z,5852.00
2019-04-25T10:04:34.498Z,5944.00
2019-04-25T10:05:33.929Z,5892.00
2019-04-25T10:06:33.213Z,6116.00
2019-04-25T10:07:31.747Z,6228.00
2019-04-25T10:08:31.722Z,6392.00
2019-04-25T10:09:31.776Z,6508.00
2019-04-25T10:10:31.707Z,6628.00
2019-04-25T10:11:33.423Z,6708.00
2019-04-25T10:12:31.691Z,7020.00
2019-04-25T10:13:31.718Z,6928.00
2019-04-25T10:14:31.639Z,6648.00
2019-04-25T10:15:31.633Z,7272.00
2019-04-25T10:16:31.657Z,6988.00
2019-04-25T10:17:31.619Z,6780.00
2019-04-25T10:18:33.333Z,7212.00
2019-04-25T10:19:31.624Z,7496.00
2019-04-25T10:20:33.282Z,8048.00
2019-04-25T10:21:31.587Z,8148.00
2019-04-25T10:22:31.583Z,7728.00
2019-04-25T10:23:31.582Z,8132.00
2019-04-25T10:24:31.600Z,8708.00
2019-04-25T10:25:33.136Z,9032.00
2019-04-25T10:26:31.528Z,9248.00
2019-04-25T10:27:31.533Z,9196.00
2019-04-25T10:28:31.523Z,9144.00
2019-04-25T10:29:41.601Z,8964.00
2019-04-25T10:30:34.204Z,8360.00
2019-04-25T10:31:41.275Z,8552.00
2019-04-25T10:32:31.457Z,8192.00
2019-04-25T10:33:31.420Z,7932.00
2019-04-25T10:34:31.431Z,7464.00
2019-04-25T10:35:34.226Z,7184.00
2019-04-25T10:36:33.623Z,6876.00
2019-04-25T10:37:31.380Z,6520.00
2019-04-25T10:38:31.393Z,6284.00
2019-04-25T10:39:31.383Z,5972.00
2019-04-25T10:40:31.359Z,5568.00
2019-04-25T10:41:31.373Z,5172.00
2019-04-25T10:42:31.347Z,5012.00
2019-04-25T10:43:31.329Z,4768.00
2019-04-25T10:44:31.302Z,4672.00
2019-04-25T10:45:31.317Z,4656.00
2019-04-25T10:46:31.298Z,4508.00
2019-04-25T10:47:31.297Z,4348.00
2019-04-25T10:48:31.320Z,4236.00
2019-04-25T10:49:31.244Z,4140.00
2019-04-25T10:50:31.249Z,4080.00
2019-04-25T10:51:31.243Z,4028.00
2019-04-25T10:52:33.649Z,4000.00
2019-04-25T10:53:31.310Z,3968.00
2019-04-25T10:54:31.230Z,3912.00
2019-04-25T10:55:31.201Z,3936.00
2019-04-25T10:56:31.200Z,3948.00
2019-04-25T10:57:31.187Z,3912.00
2019-04-25T10:58:31.190Z,3896.00
2019-04-25T10:59:32.707Z,3876.00
2019-04-25T11:00:31.509Z,3848.00
2019-04-25T11:01:31.158Z,3840.00
2019-04-25T11:02:31.189Z,3820.00
2019-04-25T11:03:31.156Z,3796.00
2019-04-25T11:04:31.149Z,3820.00
2019-04-25T11:05:31.605Z,3780.00
2019-04-25T11:06:33.459Z,3768.00
2019-04-25T11:07:31.712Z,3740.00
2019-04-25T11:08:33.850Z,3744.00
2019-04-25T11:09:31.378Z,3732.00
2019-04-25T11:10:31.803Z,3736.00
2019-04-25T11:11:31.043Z,3732.00
2019-04-25T11:12:31.087Z,3724.00
2019-04-25T11:13:31.249Z,3704.00
2019-04-25T11:14:31.712Z,3684.00
2019-04-25T11:15:33.989Z,3688.00
2019-04-25T11:16:33.271Z,3708.00
2019-04-25T11:17:33.889Z,3684.00
2019-04-25T11:18:33.986Z,3676.00
2019-04-25T11:19:30.951Z,3664.00
2019-04-25T11:20:31.720Z,3656.00
2019-04-25T11:21:30.966Z,3636.00
2019-04-25T11:22:30.953Z,3632.00
2019-04-25T11:23:30.975Z,3608.00
2019-04-25T11:24:31.715Z,3616.00
2019-04-25T11:25:30.889Z,3616.00
2019-04-25T11:26:34.430Z,3616.00
2019-04-25T11:27:31.036Z,3628.00
2019-04-25T11:28:30.991Z,3624.00
2019-04-25T11:29:31.013Z,3620.00
2019-04-25T11:30:30.995Z,3644.00
2019-04-25T11:31:30.886Z,3608.00
2019-04-25T11:32:31.725Z,3612.00
2019-04-25T11:33:33.456Z,3620.00
2019-04-25T11:34:30.970Z,3628.00
2019-04-25T11:35:30.819Z,3632.00
2019-04-25T11:36:31.118Z,3644.00
2019-04-25T11:37:30.848Z,3632.00
2019-04-25T11:38:30.976Z,3608.00
2019-04-25T11:39:30.915Z,3616.00
2019-04-25T11:40:30.784Z,3624.00
2019-04-25T11:41:30.761Z,3632.00
2019-04-25T11:42:30.980Z,3608.00
2019-04-25T11:43:30.705Z,3608.00
2019-04-25T11:44:30.755Z,3596.00
2019-04-25T11:45:30.743Z,3592.00
2019-04-25T11:46:30.766Z,3588.00
2019-04-25T11:47:31.444Z,3592.00
2019-04-25T11:48:34.000Z,3576.00
2019-04-25T11:49:30.952Z,3580.00
2019-04-25T11:50:30.685Z,3580.00
2019-04-25T11:51:30.989Z,3576.00
2019-04-25T11:52:33.489Z,3588.00
2019-04-25T11:53:33.759Z,3624.00
2019-04-25T11:54:30.654Z,3640.00
2019-04-25T11:55:30.706Z,3644.00
2019-04-25T11:56:30.577Z,3668.00
2019-04-25T11:57:30.572Z,3676.00
2019-04-25T11:58:30.597Z,3688.00
2019-04-25T11:59:30.555Z,3704.00
2019-04-25T12:00:30.644Z,3732.00
2019-04-25T12:01:30.517Z,3740.00
2019-04-25T12:02:30.751Z,3756.00
2019-04-25T12:03:30.604Z,3764.00
2019-04-25T12:04:30.643Z,3772.00
2019-04-25T12:05:30.485Z,3784.00
2019-04-25T12:06:30.490Z,3880.00
2019-04-25T12:07:30.472Z,4800.00
2019-04-25T12:08:30.445Z,16576.00
2019-04-25T12:09:33.311Z,58528.00
2019-04-25T12:10:30.544Z,79424.00
2019-04-25T12:11:30.515Z,76448.00
2019-04-25T12:12:30.453Z,80480.00
2019-04-25T12:13:30.378Z,80256.00
2019-04-25T12:14:30.407Z,79904.00
2019-04-25T12:15:30.375Z,75104.00
2019-04-25T12:16:30.540Z,71168.00
2019-04-25T12:17:30.363Z,72000.00
2019-04-25T12:18:33.232Z,67808.00
2019-04-25T12:19:35.826Z,64544.00
2019-04-25T12:20:31.338Z,62624.00
2019-04-25T12:21:30.345Z,70848.00
2019-04-25T12:22:30.330Z,78688.00
2019-04-25T12:23:30.390Z,81312.00
2019-04-25T12:24:30.309Z,81376.00
2019-04-25T12:25:30.259Z,78944.00
2019-04-25T12:26:30.264Z,77568.00
2019-04-25T12:27:30.462Z,83360.00